createdAt,value
2023-02-14T11:17:48.064Z,1026.15
2023-02-14T11:18:48.022Z,1026.11
2023-02-14T11:19:48.011Z,1026.15
2023-02-14T11:20:47.982Z,1026.10
2023-02-14T11:21:47.960Z,1026.06
2023-02-14T11:22:47.960Z,1026.03
2023-02-14T11:23:47.914Z,1026.03
2023-02-14T11:24:47.891Z,1026.04
2023-02-14T11:25:47.872Z,1026.05
2023-02-14T11:26:47.852Z,1026.01
2023-02-14T11:27:47.825Z,1026.03
2023-02-14T11:28:47.802Z,1026.00
2023-02-14T11:29:47.861Z,1026.00
2023-02-14T11:30:47.902Z,1025.96
2023-02-14T11:31:47.805Z,1025.96
2023-02-14T11:32:47.712Z,1025.91
2023-02-14T11:33:47.705Z,1025.99
2023-02-14T11:34:47.671Z,1025.93
2023-02-14T11:35:47.644Z,1025.95
2023-02-14T11:36:47.618Z,1025.89
2023-02-14T11:37:47.599Z,1025.90
2023-02-14T11:38:47.573Z,1025.86
2023-02-14T11:39:47.553Z,1025.82
2023-02-14T11:40:47.529Z,1025.83
2023-02-14T11:41:47.511Z,1025.82
2023-02-14T11:42:47.767Z,1025.79
2023-02-14T11:43:47.458Z,1025.77
2023-02-14T11:44:47.431Z,1025.73
2023-02-14T11:45:47.532Z,1025.71
2023-02-14T11:46:53.149Z,1025.65
2023-02-14T11:47:47.405Z,1025.66
2023-02-14T11:48:47.342Z,1025.65
2023-02-14T11:49:47.338Z,1025.66
2023-02-14T11:50:47.291Z,1025.60
2023-02-14T11:51:47.285Z,1025.59
2023-02-14T11:52:47.260Z,1025.58
2023-02-14T11:53:47.223Z,1025.56
2023-02-14T11:54:47.194Z,1025.63
2023-02-14T11:55:47.177Z,1025.64
2023-02-14T11:56:47.164Z,1025.60
2023-02-14T11:57:47.130Z,1025.59
2023-02-14T11:58:47.101Z,1025.59
2023-02-14T11:59:47.136Z,1025.56
2023-02-14T12:00:47.057Z,1025.55
2023-02-14T12:01:47.038Z,1025.51
2023-02-14T12:02:47.110Z,1025.52
2023-02-14T12:03:47.071Z,1025.51
2023-02-14T12:04:47.022Z,1025.49
2023-02-14T12:05:46.968Z,1025.48
2023-02-14T12:06:46.922Z,1025.53
2023-02-14T12:07:46.900Z,1025.47
2023-02-14T12:08:46.875Z,1025.51
2023-02-14T12:09:46.865Z,1025.47
2023-02-14T12:10:46.860Z,1025.47
2023-02-14T12:11:46.813Z,1025.42
2023-02-14T12:12:46.771Z,1025.44
2023-02-14T12:13:46.768Z,1025.43
2023-02-14T12:14:46.743Z,1025.42
2023-02-14T12:15:46.717Z,1025.44
2023-02-14T12:16:46.679Z,1025.40
2023-02-14T12:17:46.649Z,1025.43
2023-02-14T12:18:46.651Z,1025.41
2023-02-14T12:19:46.597Z,1025.38
2023-02-14T12:20:46.568Z,1025.40
2023-02-14T12:21:46.585Z,1025.38
2023-02-14T12:22:46.547Z,1025.37
2023-02-14T12:23:46.533Z,1025.34
2023-02-14T12:24:46.469Z,1025.35
2023-02-14T12:25:46.444Z,1025.32
2023-02-14T12:26:46.418Z,1025.32
2023-02-14T12:27:46.441Z,1025.30
2023-02-14T12:28:46.383Z,1025.22
2023-02-14T12:29:46.350Z,1025.24
2023-02-14T12:30:46.527Z,1025.24
2023-02-14T12:31:46.421Z,1025.23
2023-02-14T12:32:46.269Z,1025.20
2023-02-14T12:33:48.416Z,1025.20
2023-02-14T12:34:46.240Z,1025.14
2023-02-14T12:35:46.208Z,1025.20
2023-02-14T12:36:46.179Z,1025.19
2023-02-14T12:37:48.740Z,1025.16
2023-02-14T12:38:46.126Z,1025.12
2023-02-14T12:39:47.875Z,1025.13
2023-02-14T12:40:46.093Z,1025.10
2023-02-14T12:41:46.067Z,1025.10
2023-02-14T12:42:46.047Z,1025.08
2023-02-14T12:43:45.998Z,1025.08
2023-02-14T12:44:45.983Z,1025.10
2023-02-14T12:45:48.049Z,1025.07
2023-02-14T12:46:45.958Z,1025.08
2023-02-14T12:47:45.904Z,1025.05
2023-02-14T12:48:45.870Z,1025.05
2023-02-14T12:49:45.847Z,1025.08
2023-02-14T12:50:45.861Z,1025.04
2023-02-14T12:51:45.844Z,1025.00
2023-02-14T12:52:45.784Z,1025.00
2023-02-14T12:53:47.455Z,1025.01
2023-02-14T12:54:45.730Z,1024.97
2023-02-14T12:55:45.711Z,1024.96
2023-02-14T12:56:45.710Z,1025.00
2023-02-14T12:57:45.657Z,1025.02
2023-02-14T12:58:45.634Z,1024.94
2023-02-14T12:59:45.628Z,1024.98
2023-02-14T13:00:45.580Z,1025.02
2023-02-14T13:01:45.623Z,1024.95
2023-02-14T13:02:45.554Z,1024.93
2023-02-14T13:03:45.513Z,1024.97
2023-02-14T13:04:45.488Z,1024.93
2023-02-14T13:05:45.476Z,1024.95
2023-02-14T13:06:45.431Z,1024.93
2023-02-14T13:07:45.406Z,1024.94
2023-02-14T13:08:45.424Z,1024.92
2023-02-14T13:09:45.377Z,1024.88
2023-02-14T13:10:45.340Z,1024.87
2023-02-14T13:11:45.309Z,1024.88
2023-02-14T13:12:45.282Z,1024.88
2023-02-14T13:13:45.256Z,1024.84
2023-02-14T13:14:45.256Z,1024.83
2023-02-14T13:15:45.228Z,1024.84
2023-02-14T13:16:45.188Z,1024.82
2023-02-14T13:17:45.163Z,1024.77
2023-02-14T13:18:45.180Z,1024.75
2023-02-14T13:19:45.113Z,1024.78
2023-02-14T13:20:45.090Z,1024.73
2023-02-14T13:21:45.065Z,1024.70
2023-02-14T13:22:45.040Z,1024.70
2023-02-14T13:23:45.012Z,1024.68
2023-02-14T13:24:44.997Z,1024.69
2023-02-14T13:25:44.982Z,1024.64
2023-02-14T13:26:44.948Z,1024.67
2023-02-14T13:27:44.916Z,1024.60
2023-02-14T13:28:44.888Z,1024.60
2023-02-14T13:29:44.864Z,1024.60
2023-02-14T13:30:44.948Z,1024.56
2023-02-14T13:31:44.930Z,1024.58
2023-02-14T13:32:44.799Z,1024.55
2023-02-14T13:33:44.774Z,1024.55
2023-02-14T13:34:44.791Z,1024.52
2023-02-14T13:35:44.734Z,1024.50
2023-02-14T13:36:44.732Z,1024.48
2023-02-14T13:37:44.668Z,1024.46
2023-02-14T13:38:44.655Z,1024.46
2023-02-14T13:39:44.695Z,1024.47
2023-02-14T13:40:44.614Z,1024.43
2023-02-14T13:41:44.588Z,1024.46
2023-02-14T13:42:44.555Z,1024.44
2023-02-14T13:43:44.552Z,1024.41
2023-02-14T13:44:44.524Z,1024.36
2023-02-14T13:45:44.470Z,1024.35
2023-02-14T13:46:44.495Z,1024.37
2023-02-14T13:47:44.456Z,1024.36
2023-02-14T13:48:44.403Z,1024.33
2023-02-14T13:49:44.459Z,1024.32
2023-02-14T13:50:44.347Z,1024.30
2023-02-14T13:51:44.328Z,1024.28
2023-02-14T13:52:44.298Z,1024.31
2023-02-14T13:53:44.275Z,1024.29
2023-02-14T13:54:44.248Z,1024.27
2023-02-14T13:55:44.227Z,1024.27
2023-02-14T13:56:44.200Z,1024.26
2023-02-14T13:57:44.202Z,1024.28
2023-02-14T13:58:44.153Z,1024.24
2023-02-14T13:59:44.129Z,1024.24
2023-02-14T14:00:44.195Z,1024.25
2023-02-14T14:01:44.091Z,1024.20
2023-02-14T14:02:44.064Z,1024.24
2023-02-14T14:03:44.108Z,1024.24
2023-02-14T14:04:44.016Z,1024.24
2023-02-14T14:05:44.032Z,1024.21
2023-02-14T14:06:44.032Z,1024.23
2023-02-14T14:07:43.997Z,1024.20
2023-02-14T14:08:43.908Z,1024.21
2023-02-14T14:09:43.919Z,1024.19
2023-02-14T14:10:43.898Z,1024.23
2023-02-14T14:11:43.894Z,1024.21
2023-02-14T14:12:43.810Z,1024.21
2023-02-14T14:13:45.554Z,1024.19
2023-02-14T14:14:43.825Z,1024.15
2023-02-14T14:15:43.744Z,1024.12
2023-02-14T14:16:43.799Z,1024.18
2023-02-14T14:17:43.773Z,1024.17
2023-02-14T14:18:43.736Z,1024.14
2023-02-14T14:19:44.657Z,1024.17
2023-02-14T14:20:43.625Z,1024.13
2023-02-14T14:21:43.673Z,1024.14
2023-02-14T14:22:43.581Z,1024.15
2023-02-14T14:23:43.551Z,1024.13
2023-02-14T14:24:43.549Z,1024.14
2023-02-14T14:25:43.498Z,1024.12
2023-02-14T14:26:43.488Z,1024.10
2023-02-14T14:27:43.479Z,1024.08
2023-02-14T14:28:43.420Z,1024.06
2023-02-14T14:29:43.436Z,1024.04
2023-02-14T14:30:44.695Z,1024.03
2023-02-14T14:31:43.468Z,1024.02
2023-02-14T14:32:43.373Z,1024.03
2023-02-14T14:33:43.344Z,1024.01
2023-02-14T14:34:43.360Z,1023.98
2023-02-14T14:35:43.360Z,1023.99
2023-02-14T14:36:43.227Z,1023.93
2023-02-14T14:37:43.200Z,1023.94
2023-02-14T14:38:43.177Z,1023.93
2023-02-14T14:39:43.158Z,1023.91
2023-02-14T14:40:43.239Z,1023.93
2023-02-14T14:41:43.104Z,1023.90
2023-02-14T14:42:43.081Z,1023.92
2023-02-14T14:43:43.057Z,1023.92
2023-02-14T14:44:43.151Z,1023.91
2023-02-14T14:45:43.065Z,1023.91
2023-02-14T14:46:42.979Z,1023.93
2023-02-14T14:47:42.962Z,1023.95
2023-02-14T14:48:42.935Z,1023.89
2023-02-14T14:49:42.912Z,1023.91
2023-02-14T14:50:42.885Z,1023.89
2023-02-14T14:51:42.866Z,1023.89
2023-02-14T14:52:42.838Z,1023.88
2023-02-14T14:53:42.820Z,1023.87
2023-02-14T14:54:42.789Z,1023.87
2023-02-14T14:55:42.766Z,1023.84
2023-02-14T14:56:42.771Z,1023.81
2023-02-14T14:57:42.722Z,1023.84
2023-02-14T14:58:42.712Z,1023.83
2023-02-14T14:59:42.670Z,1023.83
2023-02-14T15:00:42.755Z,1023.81
2023-02-14T15:01:42.647Z,1023.84
2023-02-14T15:02:42.641Z,1023.80
2023-02-14T15:03:42.607Z,1023.85
2023-02-14T15:04:42.636Z,1023.80
2023-02-14T15:05:42.538Z,1023.82
2023-02-14T15:06:42.512Z,1023.80
2023-02-14T15:07:42.479Z,1023.83
2023-02-14T15:08:42.460Z,1023.80
2023-02-14T15:09:43.882Z,1023.81
2023-02-14T15:10:42.442Z,1023.83
2023-02-14T15:11:42.382Z,1023.81
2023-02-14T15:12:42.380Z,1023.82
2023-02-14T15:13:42.331Z,1023.80
2023-02-14T15:14:42.308Z,1023.82
2023-02-14T15:15:42.285Z,1023.80
2023-02-14T15:16:42.301Z,1023.85
2023-02-14T15:17:42.259Z,1023.85
2023-02-14T15:18:42.212Z,1023.80
2023-02-14T15:19:42.185Z,1023.84
2023-02-14T15:20:42.193Z,1023.80
2023-02-14T15:21:44.543Z,1023.79
2023-02-14T15:22:42.111Z,1023.76
2023-02-14T15:23:42.091Z,1023.72
2023-02-14T15:24:42.065Z,1023.73
2023-02-14T15:25:42.044Z,1023.75
2023-02-14T15:26:42.020Z,1023.73
2023-02-14T15:27:41.994Z,1023.72
2023-02-14T15:28:41.972Z,1023.70
2023-02-14T15:29:41.944Z,1023.66
2023-02-14T15:30:42.017Z,1023.70
2023-02-14T15:31:42.174Z,1023.69
2023-02-14T15:32:41.882Z,1023.69
2023-02-14T15:33:41.865Z,1023.68
2023-02-14T15:34:41.824Z,1023.70
2023-02-14T15:35:41.798Z,1023.70
2023-02-14T15:36:41.776Z,1023.69
2023-02-14T15:37:41.748Z,1023.65
2023-02-14T15:38:41.728Z,1023.63
2023-02-14T15:39:41.700Z,1023.65
2023-02-14T15:40:41.679Z,1023.67
2023-02-14T15:41:41.650Z,1023.63
2023-02-14T15:42:41.627Z,1023.64
2023-02-14T15:43:41.601Z,1023.61
2023-02-14T15:44:41.579Z,1023.59
2023-02-14T15:45:41.582Z,1023.57
2023-02-14T15:46:41.538Z,1023.61
2023-02-14T15:47:41.506Z,1023.58
2023-02-14T15:48:41.486Z,1023.59
2023-02-14T15:49:41.482Z,1023.55
2023-02-14T15:50:41.437Z,1023.56
2023-02-14T15:51:41.409Z,1023.52
2023-02-14T15:52:41.388Z,1023.51
2023-02-14T15:53:41.383Z,1023.52
2023-02-14T15:54:41.383Z,1023.52
2023-02-14T15:55:43.129Z,1023.48
2023-02-14T15:56:41.289Z,1023.53
2023-02-14T15:57:41.261Z,1023.48
2023-02-14T15:58:41.237Z,1023.50
2023-02-14T15:59:41.210Z,1023.47
2023-02-14T16:00:41.184Z,1023.47
2023-02-14T16:01:43.039Z,1023.48
2023-02-14T16:02:41.270Z,1023.47
2023-02-14T16:03:41.112Z,1023.47
2023-02-14T16:04:41.081Z,1023.42
2023-02-14T16:05:41.083Z,1023.46
2023-02-14T16:06:41.035Z,1023.46
2023-02-14T16:07:41.012Z,1023.43
2023-02-14T16:08:40.982Z,1023.40
2023-02-14T16:09:40.956Z,1023.45
2023-02-14T16:10:40.931Z,1023.43
2023-02-14T16:11:40.909Z,1023.45
2023-02-14T16:12:40.886Z,1023.45
2023-02-14T16:13:40.852Z,1023.43
2023-02-14T16:14:40.871Z,1023.45
2023-02-14T16:15:40.868Z,1023.46
2023-02-14T16:16:40.782Z,1023.46
2023-02-14T16:17:41.391Z,1023.42
2023-02-14T16:18:40.729Z,1023.43
2023-02-14T16:19:40.703Z,1023.42
2023-02-14T16:20:40.687Z,1023.45
2023-02-14T16:21:40.689Z,1023.47
2023-02-14T16:22:40.635Z,1023.47
2023-02-14T16:23:40.615Z,1023.49
2023-02-14T16:24:40.580Z,1023.44
2023-02-14T16:25:40.628Z,1023.50
2023-02-14T16:26:40.531Z,1023.53
2023-02-14T16:27:40.502Z,1023.52
2023-02-14T16:28:43.048Z,1023.45
2023-02-14T16:29:40.504Z,1023.48
2023-02-14T16:30:40.494Z,1023.48
2023-02-14T16:31:43.067Z,1023.48
2023-02-14T16:32:40.523Z,1023.47
2023-02-14T16:33:40.370Z,1023.47
2023-02-14T16:34:40.344Z,1023.46
2023-02-14T16:35:40.303Z,1023.47
2023-02-14T16:36:40.281Z,1023.47
2023-02-14T16:37:40.273Z,1023.46
2023-02-14T16:38:40.229Z,1023.46
2023-02-14T16:39:40.201Z,1023.49
2023-02-14T16:40:40.184Z,1023.48
2023-02-14T16:41:40.151Z,1023.52
2023-02-14T16:42:40.128Z,1023.50
2023-02-14T16:43:40.101Z,1023.48
2023-02-14T16:44:40.086Z,1023.50
2023-02-14T16:45:40.051Z,1023.52
2023-02-14T16:46:41.646Z,1023.46
2023-02-14T16:47:40.006Z,1023.51
2023-02-14T16:48:39.975Z,1023.53
2023-02-14T16:49:39.947Z,1023.46
2023-02-14T16:50:39.921Z,1023.46
2023-02-14T16:51:39.895Z,1023.45
2023-02-14T16:52:39.904Z,1023.45
2023-02-14T16:53:39.864Z,1023.49
2023-02-14T16:54:39.820Z,1023.54
2023-02-14T16:55:39.797Z,1023.54
2023-02-14T16:56:39.778Z,1023.55
2023-02-14T16:57:39.745Z,1023.53
2023-02-14T16:58:39.720Z,1023.57
2023-02-14T16:59:39.692Z,1023.55
2023-02-14T17:00:39.667Z,1023.60
2023-02-14T17:01:39.740Z,1023.57
2023-02-14T17:02:39.708Z,1023.59
2023-02-14T17:03:39.589Z,1023.55
2023-02-14T17:04:39.564Z,1023.59
2023-02-14T17:05:39.535Z,1023.58
2023-02-14T17:06:39.513Z,1023.60
2023-02-14T17:07:39.492Z,1023.59
2023-02-14T17:08:39.463Z,1023.56
2023-02-14T17:09:39.488Z,1023.56
2023-02-14T17:10:39.408Z,1023.57
2023-02-14T17:11:39.384Z,1023.53
2023-02-14T17:12:39.353Z,1023.51
2023-02-14T17:13:41.064Z,1023.47
2023-02-14T17:14:39.433Z,1023.47
2023-02-14T17:15:39.322Z,1023.48
2023-02-14T17:16:39.251Z,1023.56
2023-02-14T17:17:39.232Z,1023.57
2023-02-14T17:18:39.206Z,1023.54
2023-02-14T17:19:39.170Z,1023.58
2023-02-14T17:20:39.161Z,1023.54
2023-02-14T17:21:39.119Z,1023.55
2023-02-14T17:22:39.096Z,1023.56
2023-02-14T17:23:39.067Z,1023.57
2023-02-14T17:24:39.043Z,1023.52
2023-02-14T17:25:39.058Z,1023.53
2023-02-14T17:26:38.992Z,1023.53
2023-02-14T17:27:38.963Z,1023.50
2023-02-14T17:28:38.990Z,1023.49
2023-02-14T17:29:38.906Z,1023.46
2023-02-14T17:30:38.906Z,1023.46
2023-02-14T17:31:39.013Z,1023.51
2023-02-14T17:32:38.831Z,1023.48
2023-02-14T17:33:38.803Z,1023.47
2023-02-14T17:34:38.851Z,1023.49
2023-02-14T17:35:38.751Z,1023.47
2023-02-14T17:36:38.724Z,1023.51
2023-02-14T17:37:38.693Z,1023.51
2023-02-14T17:38:38.668Z,1023.46
2023-02-14T17:39:38.641Z,1023.46
2023-02-14T17:40:38.616Z,1023.42
2023-02-14T17:41:38.609Z,1023.46
2023-02-14T17:42:38.566Z,1023.46
2023-02-14T17:43:38.531Z,1023.46
2023-02-14T17:44:38.511Z,1023.46
2023-02-14T17:45:38.479Z,1023.43
2023-02-14T17:46:38.510Z,1023.46
2023-02-14T17:47:38.426Z,1023.47
2023-02-14T17:48:38.407Z,1023.45
2023-02-14T17:49:38.377Z,1023.45
2023-02-14T17:50:38.350Z,1023.47
2023-02-14T17:51:38.320Z,1023.47
2023-02-14T17:52:38.302Z,1023.50
2023-02-14T17:53:38.266Z,1023.46
2023-02-14T17:54:38.250Z,1023.51
2023-02-14T17:55:38.223Z,1023.47
2023-02-14T17:56:38.187Z,1023.53
2023-02-14T17:57:38.176Z,1023.50
2023-02-14T17:58:38.131Z,1023.52
2023-02-14T17:59:38.134Z,1023.52
2023-02-14T18:00:38.110Z,1023.55
2023-02-14T18:01:38.100Z,1023.51
2023-02-14T18:02:38.084Z,1023.54
2023-02-14T18:03:38.009Z,1023.52
2023-02-14T18:04:37.980Z,1023.53
2023-02-14T18:05:37.946Z,1023.54
2023-02-14T18:06:37.916Z,1023.52
2023-02-14T18:07:37.928Z,1023.52
2023-02-14T18:08:37.864Z,1023.52
2023-02-14T18:09:37.841Z,1023.55
2023-02-14T18:10:37.812Z,1023.50
2023-02-14T18:11:37.783Z,1023.54
2023-02-14T18:12:37.760Z,1023.54
2023-02-14T18:13:37.747Z,1023.56
2023-02-14T18:14:37.703Z,1023.54
2023-02-14T18:15:37.675Z,1023.52
2023-02-14T18:16:37.649Z,1023.53
2023-02-14T18:17:37.638Z,1023.50
2023-02-14T18:18:37.605Z,1023.50
2023-02-14T18:19:37.576Z,1023.43
2023-02-14T18:20:37.539Z,1023.42
2023-02-14T18:21:37.512Z,1023.45
2023-02-14T18:22:37.483Z,1023.40
2023-02-14T18:23:37.455Z,1023.39
2023-02-14T18:24:37.430Z,1023.36
2023-02-14T18:25:37.402Z,1023.32
2023-02-14T18:26:37.380Z,1023.35
2023-02-14T18:27:37.345Z,1023.31
2023-02-14T18:28:37.319Z,1023.30
2023-02-14T18:29:37.321Z,1023.31
2023-02-14T18:30:37.338Z,1023.29
2023-02-14T18:31:37.333Z,1023.28
2023-02-14T18:32:37.209Z,1023.27
2023-02-14T18:33:37.202Z,1023.27
2023-02-14T18:34:37.158Z,1023.24
2023-02-14T18:35:37.122Z,1023.25
2023-02-14T18:36:37.097Z,1023.23
2023-02-14T18:37:37.185Z,1023.26
2023-02-14T18:38:37.094Z,1023.24
2023-02-14T18:39:37.011Z,1023.22
2023-02-14T18:40:36.986Z,1023.26
2023-02-14T18:41:36.962Z,1023.24
2023-02-14T18:42:36.932Z,1023.25
2023-02-14T18:43:36.903Z,1023.26
2023-02-14T18:44:36.875Z,1023.22
2023-02-14T18:45:37.057Z,1023.24
2023-02-14T18:46:36.827Z,1023.22
2023-02-14T18:47:36.790Z,1023.21
2023-02-14T18:48:36.766Z,1023.19
2023-02-14T18:49:36.733Z,1023.18
2023-02-14T18:50:36.725Z,1023.19
2023-02-14T18:51:36.679Z,1023.22
2023-02-14T18:52:36.888Z,1023.22
2023-02-14T18:53:36.622Z,1023.23
2023-02-14T18:54:36.597Z,1023.21
2023-02-14T18:55:36.567Z,1023.19
2023-02-14T18:56:36.549Z,1023.19
2023-02-14T18:57:36.511Z,1023.14
2023-02-14T18:58:36.501Z,1023.13
2023-02-14T18:59:36.454Z,1023.15
2023-02-14T19:00:36.450Z,1023.14
2023-02-14T19:01:36.419Z,1023.08
2023-02-14T19:02:36.375Z,1023.10
2023-02-14T19:03:36.346Z,1023.11
2023-02-14T19:04:36.321Z,1023.11
2023-02-14T19:05:37.088Z,1023.10
2023-02-14T19:06:36.272Z,1023.11
2023-02-14T19:07:36.240Z,1023.09
2023-02-14T19:08:36.210Z,1023.07
2023-02-14T19:09:36.180Z,1023.06
2023-02-14T19:10:36.160Z,1023.10
2023-02-14T19:11:36.131Z,1023.06
2023-02-14T19:12:36.103Z,1023.06
2023-02-14T19:13:36.085Z,1023.04
2023-02-14T19:14:36.044Z,1023.08
2023-02-14T19:15:36.015Z,1023.11
2023-02-14T19:16:36.010Z,1023.10
2023-02-14T19:17:35.985Z,1023.12
2023-02-14T19:18:35.946Z,1023.16
2023-02-14T19:19:35.906Z,1023.11
2023-02-14T19:20:35.878Z,1023.09
2023-02-14T19:21:35.863Z,1023.12
2023-02-14T19:22:35.862Z,1023.10
2023-02-14T19:23:35.810Z,1023.11
2023-02-14T19:24:35.823Z,1023.15
2023-02-14T19:25:35.781Z,1023.15
2023-02-14T19:26:35.779Z,1023.10
2023-02-14T19:27:35.687Z,1023.09
2023-02-14T19:28:35.662Z,1023.10
2023-02-14T19:29:35.684Z,1023.12
2023-02-14T19:30:35.613Z,1023.11
2023-02-14T19:31:35.810Z,1023.09
2023-02-14T19:32:35.573Z,1023.12
2023-02-14T19:33:35.547Z,1023.08
2023-02-14T19:34:35.644Z,1023.12
2023-02-14T19:35:35.468Z,1023.07
2023-02-14T19:36:35.556Z,1023.06
2023-02-14T19:37:35.409Z,1023.05
2023-02-14T19:38:35.385Z,1023.04
2023-02-14T19:39:35.419Z,1022.99
2023-02-14T19:40:35.709Z,1023.02
2023-02-14T19:41:35.289Z,1023.03
2023-02-14T19:42:35.275Z,1023.01
2023-02-14T19:43:35.238Z,1022.96
2023-02-14T19:44:35.254Z,1022.96
2023-02-14T19:45:35.198Z,1022.99
2023-02-14T19:46:35.232Z,1022.97
2023-02-14T19:47:46.764Z,1022.97
2023-02-14T19:48:35.091Z,1022.89
2023-02-14T19:49:35.084Z,1022.90
2023-02-14T19:50:35.048Z,1022.88
2023-02-14T19:51:35.164Z,1022.85
2023-02-14T19:52:34.980Z,1022.89
2023-02-14T19:53:34.954Z,1022.81
2023-02-14T19:54:34.920Z,1022.81
2023-02-14T19:55:34.900Z,1022.79
2023-02-14T19:56:34.882Z,1022.81
2023-02-14T19:57:34.886Z,1022.79
2023-02-14T19:58:34.822Z,1022.76
2023-02-14T19:59:34.804Z,1022.74
2023-02-14T20:00:34.776Z,1022.77
2023-02-14T20:01:34.741Z,1022.79
2023-02-14T20:02:34.715Z,1022.77
2023-02-14T20:03:34.669Z,1022.78
2023-02-14T20:04:34.638Z,1022.78
2023-02-14T20:05:34.630Z,1022.76
2023-02-14T20:06:34.588Z,1022.75
2023-02-14T20:07:34.563Z,1022.73
2023-02-14T20:08:34.557Z,1022.66
2023-02-14T20:09:34.573Z,1022.64
2023-02-14T20:10:34.498Z,1022.64
2023-02-14T20:11:34.454Z,1022.65
2023-02-14T20:12:34.450Z,1022.68
2023-02-14T20:13:34.441Z,1022.64
2023-02-14T20:14:49.903Z,1022.58
2023-02-14T20:15:34.344Z,1022.65
2023-02-14T20:16:34.418Z,1022.61
2023-02-14T20:17:34.274Z,1022.63
2023-02-14T20:18:34.252Z,1022.65
2023-02-14T20:19:34.307Z,1022.61
2023-02-14T20:20:34.355Z,1022.57
2023-02-14T20:21:34.187Z,1022.57
2023-02-14T20:22:34.255Z,1022.56
2023-02-14T20:23:34.185Z,1022.58
2023-02-14T20:24:34.081Z,1022.52
2023-02-14T20:25:34.059Z,1022.53
2023-02-14T20:26:34.039Z,1022.48
2023-02-14T20:27:33.992Z,1022.49
2023-02-14T20:28:33.967Z,1022.50
2023-02-14T20:29:34.331Z,1022.50
2023-02-14T20:30:33.934Z,1022.52
2023-02-14T20:31:34.047Z,1022.49
2023-02-14T20:32:33.853Z,1022.44
2023-02-14T20:33:33.824Z,1022.41
2023-02-14T20:34:33.842Z,1022.44
2023-02-14T20:35:33.781Z,1022.38
2023-02-14T20:36:33.736Z,1022.36
2023-02-14T20:37:33.733Z,1022.35
2023-02-14T20:38:34.033Z,1022.30
2023-02-14T20:39:33.753Z,1022.39
2023-02-14T20:40:33.614Z,1022.32
2023-02-14T20:41:33.585Z,1022.33
2023-02-14T20:42:33.554Z,1022.35
2023-02-14T20:43:33.528Z,1022.34
2023-02-14T20:44:33.554Z,1022.31
2023-02-14T20:45:33.475Z,1022.28
2023-02-14T20:46:33.456Z,1022.25
2023-02-14T20:47:33.454Z,1022.24
2023-02-14T20:48:33.383Z,1022.25
2023-02-14T20:49:33.457Z,1022.26
2023-02-14T20:50:33.400Z,1022.20
2023-02-14T20:51:33.355Z,1022.18
2023-02-14T20:52:33.281Z,1022.19
2023-02-14T20:53:33.263Z,1022.19
2023-02-14T20:54:33.262Z,1022.18
2023-02-14T20:55:33.185Z,1022.20
2023-02-14T20:56:33.168Z,1022.17
2023-02-14T20:57:33.126Z,1022.17
2023-02-14T20:58:33.104Z,1022.21
2023-02-14T20:59:33.146Z,1022.20
2023-02-14T21:00:33.084Z,1022.20
2023-02-14T21:01:33.114Z,1022.20
2023-02-14T21:02:32.982Z,1022.21
2023-02-14T21:03:32.993Z,1022.22
2023-02-14T21:04:32.929Z,1022.25
2023-02-14T21:05:32.900Z,1022.19
2023-02-14T21:06:32.887Z,1022.23
2023-02-14T21:07:32.913Z,1022.23
2023-02-14T21:08:32.818Z,1022.21
2023-02-14T21:09:32.965Z,1022.24
2023-02-14T21:10:32.860Z,1022.19
2023-02-14T21:11:32.856Z,1022.17
2023-02-14T21:12:32.700Z,1022.19
2023-02-14T21:13:32.673Z,1022.19
2023-02-14T21:14:32.687Z,1022.13
2023-02-14T21:15:32.755Z,1022.15
2023-02-14T21:16:32.589Z,1022.15
2023-02-14T21:17:32.550Z,1022.17
2023-02-14T21:18:32.583Z,1022.17
2023-02-14T21:19:32.578Z,1022.17
2023-02-14T21:20:32.581Z,1022.17
2023-02-14T21:21:32.639Z,1022.19
2023-02-14T21:22:32.410Z,1022.19
2023-02-14T21:23:32.395Z,1022.24
2023-02-14T21:24:32.694Z,1022.20
2023-02-14T21:25:32.672Z,1022.21
2023-02-14T21:26:32.313Z,1022.17
2023-02-14T21:27:32.382Z,1022.15
2023-02-14T21:28:32.303Z,1022.13
2023-02-14T21:29:32.224Z,1022.15
2023-02-14T21:30:32.192Z,1022.17
2023-02-14T21:31:32.404Z,1022.15
2023-02-14T21:32:32.189Z,1022.15
2023-02-14T21:33:32.103Z,1022.13
2023-02-14T21:34:32.177Z,1022.16
2023-02-14T21:35:32.101Z,1022.17
2023-02-14T21:36:32.023Z,1022.12
2023-02-14T21:37:32.118Z,1022.16
2023-02-14T21:38:31.981Z,1022.16
2023-02-14T21:39:31.934Z,1022.17
2023-02-14T21:40:32.020Z,1022.19
2023-02-14T21:41:31.910Z,1022.15
2023-02-14T21:42:31.857Z,1022.16
2023-02-14T21:43:31.826Z,1022.15
2023-02-14T21:44:32.191Z,1022.19
2023-02-14T21:45:31.751Z,1022.21
2023-02-14T21:46:31.796Z,1022.21
2023-02-14T21:47:31.694Z,1022.21
2023-02-14T21:48:31.667Z,1022.23
2023-02-14T21:49:31.641Z,1022.20
2023-02-14T21:50:31.608Z,1022.24
2023-02-14T21:51:31.586Z,1022.24
2023-02-14T21:52:31.551Z,1022.23
2023-02-14T21:53:31.520Z,1022.19
2023-02-14T21:54:31.489Z,1022.21
2023-02-14T21:55:31.463Z,1022.15
2023-02-14T21:56:31.434Z,1022.13
2023-02-14T21:57:31.427Z,1022.13
2023-02-14T21:58:31.372Z,1022.17
2023-02-14T21:59:31.346Z,1022.20
2023-02-14T22:00:31.336Z,1022.17
2023-02-14T22:01:31.436Z,1022.20
2023-02-14T22:02:31.327Z,1022.15
2023-02-14T22:03:31.276Z,1022.15
2023-02-14T22:04:31.308Z,1022.19
2023-02-14T22:05:31.614Z,1022.15
2023-02-14T22:06:31.175Z,1022.21
2023-02-14T22:07:31.156Z,1022.20
2023-02-14T22:08:31.086Z,1022.17
2023-02-14T22:09:31.108Z,1022.16
2023-02-14T22:10:31.122Z,1022.15
2023-02-14T22:11:31.097Z,1022.16
2023-02-14T22:12:31.034Z,1022.22
2023-02-14T22:13:30.953Z,1022.16
2023-02-14T22:14:30.910Z,1022.13
2023-02-14T22:15:30.877Z,1022.15
2023-02-14T22:16:30.845Z,1022.16
2023-02-14T22:17:30.816Z,1022.13
2023-02-14T22:18:30.789Z,1022.11
2023-02-14T22:19:30.776Z,1022.11
2023-02-14T22:20:30.729Z,1022.10
2023-02-14T22:21:30.717Z,1022.10
2023-02-14T22:22:30.673Z,1022.10
2023-02-14T22:23:30.668Z,1022.08
2023-02-14T22:24:30.629Z,1022.08
2023-02-14T22:25:30.592Z,1022.09
2023-02-14T22:26:30.580Z,1022.07
2023-02-14T22:27:30.526Z,1022.06
2023-02-14T22:28:30.496Z,1022.06
2023-02-14T22:29:30.496Z,1021.98
2023-02-14T22:30:30.437Z,1022.02
2023-02-14T22:31:30.516Z,1022.07
2023-02-14T22:32:30.376Z,1022.01
2023-02-14T22:33:30.350Z,1022.01
2023-02-14T22:34:30.317Z,1021.99
2023-02-14T22:35:30.292Z,1021.96
2023-02-14T22:36:30.258Z,1021.96
2023-02-14T22:37:30.234Z,1021.99
2023-02-14T22:38:30.201Z,1021.96
2023-02-14T22:39:30.174Z,1021.93
2023-02-14T22:40:30.153Z,1021.94
2023-02-14T22:41:30.115Z,1021.94
2023-02-14T22:42:30.085Z,1021.92
2023-02-14T22:43:30.058Z,1021.92
2023-02-14T22:44:30.037Z,1021.89
2023-02-14T22:45:30.028Z,1021.89
2023-02-14T22:46:29.996Z,1021.91
2023-02-14T22:47:29.949Z,1021.91
2023-02-14T22:48:29.911Z,1021.88
2023-02-14T22:49:29.884Z,1021.91
2023-02-14T22:50:29.852Z,1021.88
2023-02-14T22:51:29.824Z,1021.91
2023-02-14T22:52:29.794Z,1021.88
2023-02-14T22:53:29.763Z,1021.90
2023-02-14T22:54:29.739Z,1021.90
2023-02-14T22:55:29.716Z,1021.90
2023-02-14T22:56:29.692Z,1021.90
2023-02-14T22:57:29.657Z,1021.86
2023-02-14T22:58:29.615Z,1021.91
2023-02-14T22:59:29.598Z,1021.88
2023-02-14T23:00:29.560Z,1021.86
2023-02-14T23:01:29.585Z,1021.88
2023-02-14T23:02:29.607Z,1021.91
2023-02-14T23:03:29.471Z,1021.84
2023-02-14T23:04:29.463Z,1021.86
2023-02-14T23:05:29.412Z,1021.84
2023-02-14T23:06:29.384Z,1021.83
2023-02-14T23:07:29.353Z,1021.85
2023-02-14T23:08:29.323Z,1021.83
2023-02-14T23:09:29.296Z,1021.81
2023-02-14T23:10:29.274Z,1021.79
2023-02-14T23:11:29.251Z,1021.79
2023-02-14T23:12:29.215Z,1021.77
2023-02-14T23:13:29.186Z,1021.80
2023-02-14T23:14:29.151Z,1021.78
2023-02-14T23:15:29.120Z,1021.79
2023-02-14T23:16:29.142Z,1021.83
2023-02-14T23:17:29.080Z,1021.82
2023-02-14T23:18:29.030Z,1021.82
2023-02-14T23:19:29.012Z,1021.85
2023-02-14T23:20:28.973Z,1021.83
2023-02-14T23:21:28.943Z,1021.84
2023-02-14T23:22:28.920Z,1021.82